createdAt,value
2022-10-18T00:02:42.150Z,46.6
2022-10-18T00:04:45.644Z,43.6
2022-10-18T00:08:52.541Z,49.4
2022-10-18T00:10:55.986Z,45.6
2022-10-18T00:12:59.461Z,43.6
2022-10-18T00:15:06.010Z,57.1
2022-10-18T00:19:12.925Z,58.9
2022-10-18T00:21:16.395Z,56.8
2022-10-18T00:29:33.355Z,66.6
2022-10-18T00:33:41.793Z,71.7
2022-10-18T00:34:45.061Z,65.3
2022-10-18T00:36:48.481Z,104.9
2022-10-18T00:38:51.966Z,77.9
2022-10-18T00:40:55.427Z,51.7
2022-10-18T00:43:01.967Z,66.2
2022-10-18T00:45:05.424Z,67.3
2022-10-18T00:47:08.855Z,90.6
2022-10-18T00:49:12.333Z,74.9
2022-10-18T00:51:15.839Z,57.9
2022-10-18T00:53:19.296Z,72.5
2022-10-18T00:55:22.775Z,54.8
2022-10-18T00:59:32.742Z,65.5
2022-10-18T01:01:36.266Z,78.7
2022-10-18T01:03:39.720Z,76.3
2022-10-18T01:05:43.186Z,76.3
2022-10-18T01:07:46.686Z,88
2022-10-18T01:09:50.159Z,97.1
2022-10-18T01:18:07.143Z,196.9
2022-10-18T01:20:10.628Z,113.1
2022-10-18T01:22:14.068Z,102.1
2022-10-18T01:24:17.547Z,100.6
2022-10-18T01:26:24.131Z,126.2
2022-10-18T01:28:27.662Z,105.5
2022-10-18T01:30:31.062Z,160.9
2022-10-18T01:35:41.243Z,215.4
2022-10-18T01:37:44.746Z,198.6
2022-10-18T01:39:51.327Z,135.7
2022-10-18T01:41:54.772Z,106.6
2022-10-18T01:43:58.259Z,157.2
2022-10-18T01:46:01.741Z,120
2022-10-18T01:48:05.198Z,134.3
2022-10-18T01:50:08.648Z,107.5
2022-10-18T01:52:12.116Z,231.8
2022-10-18T01:54:18.661Z,116.9
2022-10-18T01:56:22.152Z,119
2022-10-18T01:58:25.615Z,100.4
2022-10-18T02:02:33.160Z,81.1
2022-10-18T02:04:36.014Z,155.3
2022-10-18T02:08:46.070Z,83.4
2022-10-18T02:10:49.535Z,77.2
2022-10-18T02:12:52.989Z,66.2
2022-10-18T02:14:56.463Z,66.3
2022-10-18T02:16:59.933Z,66.2
2022-10-18T02:19:03.442Z,52.3
2022-10-18T02:21:06.889Z,68.6
2022-10-18T02:23:13.475Z,74.2
2022-10-18T02:25:16.918Z,69.2
2022-10-18T02:27:20.384Z,61.1
2022-10-18T02:30:27.139Z,77.4
2022-10-18T02:32:30.784Z,61.5
2022-10-18T02:34:34.095Z,57.6
2022-10-18T02:36:40.715Z,64
2022-10-18T02:38:44.183Z,64.7
2022-10-18T02:40:47.628Z,81.2
2022-10-18T02:42:51.112Z,64.6
2022-10-18T02:44:54.571Z,87.6
2022-10-18T02:46:58.059Z,90.7
2022-10-18T02:49:01.555Z,93.2
2022-10-18T02:53:11.549Z,134.9
2022-10-18T02:55:15.028Z,110
2022-10-18T02:57:18.480Z,95.2
2022-10-18T02:59:21.965Z,101
2022-10-18T03:01:25.563Z,68.3
2022-10-18T03:03:28.906Z,79.1
2022-10-18T03:05:35.490Z,101
2022-10-18T03:07:38.971Z,85.2
2022-10-18T03:09:42.433Z,113.3
2022-10-18T03:11:45.914Z,83.1
2022-10-18T03:13:49.426Z,144.3
2022-10-18T03:15:52.888Z,85.8
2022-10-18T03:17:56.378Z,119.4
2022-10-18T03:20:02.961Z,82.9
2022-10-18T03:22:06.415Z,75.3
2022-10-18T03:24:09.882Z,83
2022-10-18T03:26:32.029Z,83
2022-10-18T03:28:35.565Z,99.2
2022-10-18T03:30:38.985Z,108.9
2022-10-18T03:32:45.543Z,141.5
2022-10-18T03:34:49.001Z,98.2
2022-10-18T03:36:52.520Z,104
2022-10-18T03:38:55.948Z,138.4
2022-10-18T03:40:59.476Z,63.2
2022-10-18T03:43:02.971Z,77.1
2022-10-18T03:45:06.473Z,70.6
2022-10-18T03:47:13.012Z,89
2022-10-18T03:49:16.518Z,105.6
2022-10-18T03:51:20.015Z,82
2022-10-18T03:53:23.495Z,68.5
2022-10-18T03:55:27.004Z,56.9
2022-10-18T03:57:30.483Z,67.2
2022-10-18T03:59:33.981Z,67.9
2022-10-18T04:01:40.660Z,81.2
2022-10-18T04:03:44.065Z,132.8
2022-10-18T04:05:47.528Z,175
2022-10-18T04:07:51.037Z,231.5
2022-10-18T04:09:54.521Z,70.5
2022-10-18T04:11:57.992Z,84.9
2022-10-18T04:14:01.518Z,91.3
2022-10-18T04:16:08.049Z,81.6
2022-10-18T04:18:11.539Z,77.8
2022-10-18T04:20:15.054Z,58.2
2022-10-18T04:21:18.356Z,67.7
2022-10-18T04:23:21.821Z,70.2
2022-10-18T04:25:25.337Z,88.7
2022-10-18T04:27:29.115Z,83.7
2022-10-18T04:29:35.393Z,58.7
2022-10-18T04:31:38.879Z,67.1
2022-10-18T04:33:42.380Z,63
2022-10-18T04:35:45.888Z,62
2022-10-18T04:37:49.384Z,61.3
2022-10-18T04:39:53.800Z,44.8
2022-10-18T04:41:56.388Z,74
2022-10-18T04:44:02.956Z,65.7
2022-10-18T04:46:06.412Z,123.3
2022-10-18T04:48:09.919Z,88.3
2022-10-18T04:50:13.419Z,295
2022-10-18T04:52:16.929Z,53.7
2022-10-18T04:54:21.891Z,109.2
2022-10-18T04:56:23.927Z,48.3
2022-10-18T04:58:30.688Z,64.2
2022-10-18T05:00:39.144Z,58.3
2022-10-18T05:02:37.541Z,158.1
2022-10-18T05:04:41.072Z,98.1
2022-10-18T05:06:44.579Z,52.6
2022-10-18T05:08:48.072Z,49.8
2022-10-18T05:10:51.604Z,99.9
2022-10-18T05:12:58.198Z,544.1
2022-10-18T05:15:01.713Z,457.7
2022-10-18T05:18:08.556Z,469.8
2022-10-18T05:20:12.044Z,479.1
2022-10-18T05:22:15.540Z,405.4
2022-10-18T05:24:20.269Z,457.7
2022-10-18T05:26:25.676Z,392.4
2022-10-18T05:28:39.508Z,310.5
2022-10-18T05:30:32.706Z,325.7
2022-10-18T05:32:36.250Z,266.8
2022-10-18T05:34:39.777Z,377
2022-10-18T05:36:43.263Z,334.4
2022-10-18T05:38:46.822Z,318
2022-10-18T05:40:53.399Z,307.4
2022-10-18T05:42:56.923Z,198.6
2022-10-18T05:47:03.945Z,367.8
2022-10-18T05:53:35.361Z,251.4
2022-10-18T05:55:21.103Z,313.6
2022-10-18T05:57:24.630Z,319.5
2022-10-18T05:59:28.145Z,140.7
2022-10-18T06:01:31.678Z,129
2022-10-18T06:03:35.175Z,146.7
2022-10-18T06:07:42.230Z,225.7
2022-10-18T06:09:48.891Z,135.3
2022-10-18T06:11:52.373Z,107.6
2022-10-18T06:13:55.857Z,95.7
2022-10-18T06:14:59.141Z,153.2
2022-10-18T06:17:02.685Z,66.1
2022-10-18T06:19:06.197Z,40.7
2022-10-18T06:21:09.733Z,86.8
2022-10-18T06:23:16.334Z,62.5
2022-10-18T06:25:19.904Z,121
2022-10-18T06:27:23.398Z,106.8
2022-10-18T06:29:28.496Z,48.6
2022-10-18T06:31:31.963Z,229.2
2022-10-18T06:33:35.481Z,94.3
2022-10-18T06:35:39.008Z,51.1
2022-10-18T06:37:45.675Z,312.6
2022-10-18T06:39:49.181Z,110.3
2022-10-18T06:41:52.734Z,75.1
2022-10-18T06:43:56.258Z,85.4
2022-10-18T06:45:59.927Z,62.2
2022-10-18T06:48:03.317Z,52.1
2022-10-18T06:50:06.860Z,50.6
2022-10-18T06:52:13.486Z,70.9
2022-10-18T06:54:18.366Z,31.1
2022-10-18T06:56:20.579Z,78.4
2022-10-18T06:58:24.153Z,83.1
2022-10-18T07:00:27.656Z,50.1
2022-10-18T07:02:36.210Z,63.9
2022-10-18T07:04:34.772Z,70.6
2022-10-18T07:07:12.803Z,69.7
2022-10-18T07:08:44.968Z,75.3
2022-10-18T07:10:48.567Z,44
2022-10-18T07:19:25.842Z,39.8
2022-10-18T07:21:29.351Z,53.1
2022-10-18T07:23:32.926Z,40.9
2022-10-18T07:25:36.473Z,44.3
2022-10-18T07:33:53.702Z,43.9
2022-10-18T07:35:57.227Z,41.1
2022-10-18T07:38:00.819Z,35.1
2022-10-18T07:40:04.294Z,37.3
2022-10-18T07:44:11.338Z,29.2
2022-10-18T07:46:14.900Z,22.9
2022-10-18T07:48:21.480Z,21.5
2022-10-18T07:50:24.976Z,19.2
2022-10-18T07:52:28.491Z,20.4
2022-10-18T07:54:31.986Z,31
2022-10-18T07:56:35.489Z,13.4
2022-10-18T07:58:38.989Z,11.8
2022-10-18T08:00:42.470Z,15.3
2022-10-18T08:02:49.072Z,12.8
2022-10-18T08:04:52.580Z,8
2022-10-18T08:06:56.003Z,7.3
2022-10-18T08:08:01.009Z,11.8
2022-10-18T08:12:06.115Z,6.8
2022-10-18T08:14:09.553Z,14.6
2022-10-18T08:16:16.026Z,8.8
2022-10-18T08:18:20.479Z,13.6
2022-10-18T08:20:30.750Z,7.3
2022-10-18T08:22:36.700Z,8.4
2022-10-18T08:24:29.856Z,15
2022-10-18T08:26:33.312Z,14.7
2022-10-18T08:28:36.964Z,13.7
2022-10-18T08:30:43.261Z,17.6
2022-10-18T08:32:46.716Z,10.4
2022-10-18T08:36:53.571Z,10.6
2022-10-18T08:38:57.024Z,9.5
2022-10-18T08:41:00.465Z,9
2022-10-18T08:45:13.053Z,8.4
2022-10-18T08:51:20.694Z,8.6
2022-10-18T08:53:24.050Z,9.4
2022-10-18T08:55:27.506Z,7.1
2022-10-18T08:57:31.213Z,10.8
2022-10-18T08:59:37.510Z,14.5
2022-10-18T09:01:41.007Z,6
2022-10-18T09:03:44.413Z,7.6
2022-10-18T09:04:47.597Z,11.3
2022-10-18T09:06:51.004Z,3.3
2022-10-18T09:08:54.329Z,8.8
2022-10-18T09:13:04.209Z,9.6
2022-10-18T09:15:07.612Z,5
2022-10-18T09:17:15.780Z,12.2
2022-10-18T09:19:14.200Z,10.1
2022-10-18T09:21:17.477Z,9
2022-10-18T09:23:20.752Z,6.8
2022-10-18T09:25:24.063Z,4.8
2022-10-18T09:27:30.290Z,5.5
2022-10-18T09:29:33.551Z,9.2
2022-10-18T09:31:36.787Z,13.2
2022-10-18T09:33:40.019Z,9
2022-10-18T09:35:43.241Z,7.6
2022-10-18T09:37:46.447Z,2.7
2022-10-18T09:39:49.645Z,1.6
2022-10-18T09:41:55.849Z,4.7
2022-10-18T09:43:59.037Z,11.5
2022-10-18T09:48:05.376Z,3.6
2022-10-18T09:50:08.558Z,1.4
2022-10-18T09:54:14.839Z,1.8
2022-10-18T09:56:21.013Z,2.3
2022-10-18T09:58:24.121Z,8.1
2022-10-18T10:00:27.244Z,6
2022-10-18T10:01:30.337Z,3.6
2022-10-18T10:03:33.448Z,6.6
2022-10-18T10:05:36.557Z,4.3
2022-10-18T10:07:40.012Z,8.6
2022-10-18T10:09:45.807Z,6.2
2022-10-18T10:11:48.918Z,5.4
2022-10-18T10:15:55.098Z,5.6
2022-10-18T10:17:58.171Z,3.8
2022-10-18T10:20:01.312Z,8.1
2022-10-18T10:22:04.371Z,9.6
2022-10-18T10:24:10.493Z,2.9
2022-10-18T10:26:13.602Z,2.5
2022-10-18T10:28:16.643Z,2
2022-10-18T10:30:19.718Z,1.8
2022-10-18T10:32:22.824Z,4.4
2022-10-18T10:34:25.870Z,3.8
2022-10-18T10:36:28.945Z,2.6
2022-10-18T10:38:35.040Z,1.5
2022-10-18T10:40:38.095Z,5.5
2022-10-18T10:42:41.151Z,3.6
2022-10-18T10:44:44.189Z,1.1
2022-10-18T10:46:47.259Z,1.4
2022-10-18T10:48:50.320Z,3.8
2022-10-18T10:50:55.125Z,2.1
2022-10-18T10:52:59.406Z,3.1
2022-10-18T10:55:22.987Z,4.2
2022-10-18T10:57:05.736Z,4.3
2022-10-18T10:59:29.311Z,1.1
2022-10-18T11:01:32.236Z,4.4
2022-10-18T11:03:35.327Z,1.6
2022-10-18T11:05:41.345Z,2.7
2022-10-18T11:07:44.359Z,4.4
2022-10-18T11:09:47.385Z,5.7
2022-10-18T11:11:50.379Z,1.3
2022-10-18T11:14:01.913Z,5.2
2022-10-18T11:15:56.398Z,3.4
2022-10-18T11:17:59.439Z,2.5
2022-10-18T11:22:08.441Z,2.3
2022-10-18T11:24:11.436Z,4.1
2022-10-18T11:28:17.437Z,3.2
2022-10-18T11:30:20.478Z,4.2
2022-10-18T11:32:23.493Z,6.1
2022-10-18T11:34:29.580Z,4.5
2022-10-18T11:36:35.128Z,2.9
2022-10-18T11:38:35.851Z,5
2022-10-18T11:40:38.765Z,3.1
2022-10-18T11:42:41.863Z,4.5
2022-10-18T11:44:44.995Z,3.9
2022-10-18T11:46:48.120Z,1.9
2022-10-18T11:48:54.315Z,4.9
2022-10-18T11:50:57.457Z,1.8
2022-10-18T11:53:00.625Z,4
2022-10-18T11:54:03.687Z,2.4
2022-10-18T11:56:06.872Z,3
2022-10-18T11:58:10.020Z,1.8
2022-10-18T12:00:13.248Z,8
2022-10-18T12:02:19.540Z,3.4
2022-10-18T12:04:22.642Z,1.5
2022-10-18T12:06:25.844Z,6.3
2022-10-18T12:10:45.815Z,2.1
2022-10-18T12:12:35.607Z,1.8
2022-10-18T12:14:38.813Z,2.2
2022-10-18T12:16:51.542Z,4.6
2022-10-18T12:18:48.448Z,12.3
2022-10-18T12:22:54.975Z,4.5
2022-10-18T12:24:59.778Z,2.7
2022-10-18T12:27:03.082Z,5.2
2022-10-18T12:29:06.557Z,5.3
2022-10-18T12:31:12.872Z,6.5
2022-10-18T12:35:19.501Z,6.2
2022-10-18T12:37:22.866Z,2.4
2022-10-18T12:39:37.506Z,7.1
2022-10-18T12:41:29.611Z,3.3
2022-10-18T12:43:32.934Z,5.2
2022-10-18T12:45:39.430Z,5.3
2022-10-18T12:47:42.810Z,5.2
2022-10-18T12:49:46.173Z,3.8
2022-10-18T12:50:49.409Z,2.5
2022-10-18T12:52:52.785Z,6.5
2022-10-18T12:54:56.050Z,5.9
2022-10-18T12:56:59.325Z,3.5
2022-10-18T12:59:05.704Z,3.8
2022-10-18T13:01:09.039Z,2.5
2022-10-18T13:03:12.367Z,6
2022-10-18T13:05:26.983Z,4.9
2022-10-18T13:09:22.556Z,8.4
2022-10-18T13:13:39.688Z,6.4
2022-10-18T13:17:39.244Z,6.3
2022-10-18T13:19:42.604Z,9.9
2022-10-18T13:21:46.019Z,3.8
2022-10-18T13:23:49.310Z,1.9
2022-10-18T13:25:52.700Z,3.7
2022-10-18T13:27:59.147Z,4.6
2022-10-18T13:30:03.331Z,2.1
2022-10-18T13:32:06.017Z,2.4
2022-10-18T13:34:09.359Z,4.9
2022-10-18T13:36:12.715Z,6.5
2022-10-18T13:38:16.191Z,6.2
2022-10-18T13:40:19.539Z,3.3
2022-10-18T13:42:26.077Z,5.6
2022-10-18T13:44:29.433Z,2
2022-10-18T13:46:32.857Z,5.8
2022-10-18T13:47:36.124Z,9.9
2022-10-18T13:49:39.577Z,5.7
2022-10-18T13:55:55.821Z,2.3
2022-10-18T13:57:56.354Z,4.8
2022-10-18T13:59:59.667Z,3.3
2022-10-18T14:02:03.115Z,7.3
2022-10-18T14:04:06.398Z,4.6
2022-10-18T14:06:09.809Z,6.4
2022-10-18T14:08:13.260Z,3.2
2022-10-18T14:10:19.774Z,5.3
2022-10-18T14:12:23.176Z,7
2022-10-18T14:14:26.611Z,15.8
2022-10-18T14:16:29.967Z,4.4
2022-10-18T14:18:33.387Z,8.7
2022-10-18T14:20:48.925Z,6.8
2022-10-18T14:22:40.230Z,3.4
2022-10-18T14:28:59.967Z,2.5
2022-10-18T14:30:56.971Z,3
2022-10-18T14:33:00.550Z,4.5
2022-10-18T14:35:31.515Z,6.3
2022-10-18T14:39:13.712Z,9
2022-10-18T14:41:17.126Z,11.1
2022-10-18T14:43:20.553Z,6.1
2022-10-18T14:45:38.960Z,7.2
2022-10-18T14:47:42.389Z,3.2
2022-10-18T14:49:45.796Z,9.1
2022-10-18T14:51:52.307Z,4
2022-10-18T14:53:55.810Z,7.8
2022-10-18T14:55:59.158Z,4.7
2022-10-18T14:58:02.594Z,2.2
2022-10-18T15:00:06.034Z,4
2022-10-18T15:02:09.457Z,6.5
2022-10-18T15:06:19.442Z,4
2022-10-18T15:08:22.871Z,9.6
2022-10-18T15:10:26.330Z,4.3
2022-10-18T15:12:36.850Z,6.7
2022-10-18T15:14:33.214Z,2.4
2022-10-18T15:16:36.629Z,3.1
2022-10-18T15:18:40.098Z,4.8
2022-10-18T15:20:46.675Z,7.3
2022-10-18T15:22:50.130Z,3
2022-10-18T15:24:53.519Z,8.6
2022-10-18T15:26:57.008Z,2.6
2022-10-18T15:29:02.981Z,4.7
2022-10-18T15:31:03.907Z,2.8
2022-10-18T15:33:07.358Z,7.9
2022-10-18T15:35:13.917Z,10.2
2022-10-18T15:37:17.384Z,2.3
2022-10-18T15:39:20.816Z,6.3
2022-10-18T15:40:24.111Z,8.6
2022-10-18T15:42:27.596Z,10.9
2022-10-18T15:44:31.061Z,5.5
2022-10-18T15:48:41.108Z,12.1
2022-10-18T15:50:44.559Z,3.5
2022-10-18T15:52:48.042Z,8.7
2022-10-18T15:54:51.506Z,12.1
2022-10-18T15:56:54.984Z,8.2
2022-10-18T15:58:58.416Z,5.6
2022-10-18T16:01:02.050Z,11.3
2022-10-18T16:03:08.525Z,6.9
2022-10-18T16:05:11.962Z,12
2022-10-18T16:07:15.480Z,14.3
2022-10-18T16:09:18.899Z,16.7
2022-10-18T16:11:22.396Z,7.4
2022-10-18T16:13:25.857Z,9.6
2022-10-18T16:15:29.355Z,5
2022-10-18T16:17:36.030Z,6
2022-10-18T16:19:39.598Z,4.2
2022-10-18T16:21:42.943Z,2.3
2022-10-18T16:25:49.893Z,7.2
2022-10-18T16:27:53.405Z,12.1
2022-10-18T16:29:56.913Z,5.4
2022-10-18T16:32:03.499Z,11.6
2022-10-18T16:36:10.498Z,5.5
2022-10-18T16:37:13.771Z,5.7
2022-10-18T16:39:17.311Z,13.5
2022-10-18T16:41:20.796Z,4.2
2022-10-18T16:43:24.296Z,8.4
2022-10-18T16:45:31.038Z,4.7
2022-10-18T16:47:34.413Z,11.8
2022-10-18T16:49:37.965Z,12.4
2022-10-18T16:51:41.469Z,17.5
2022-10-18T16:53:44.930Z,12.8
2022-10-18T16:55:48.445Z,8.5
2022-10-18T16:57:51.954Z,9.5
2022-10-18T16:59:58.535Z,12.9
2022-10-18T17:02:02.134Z,13.3
2022-10-18T17:04:05.569Z,20.1
2022-10-18T17:06:09.340Z,9.2
2022-10-18T17:08:15.354Z,11.3
2022-10-18T17:10:16.152Z,11.3
2022-10-18T17:12:19.664Z,13.4
2022-10-18T17:14:26.284Z,18.6
2022-10-18T17:18:33.290Z,10
2022-10-18T17:20:36.793Z,16.4
2022-10-18T17:22:40.310Z,10.4
2022-10-18T17:24:43.845Z,7.2
2022-10-18T17:26:47.379Z,8.6
2022-10-18T17:28:53.973Z,9.6
2022-10-18T17:30:57.477Z,15.3
2022-10-18T17:33:00.986Z,9.8
2022-10-18T17:40:14.866Z,13
2022-10-18T17:42:21.432Z,11.3
2022-10-18T17:44:24.954Z,7.2
2022-10-18T17:46:28.499Z,10
2022-10-18T17:48:32.054Z,15.6
2022-10-18T17:50:35.576Z,21
2022-10-18T17:52:39.104Z,5.1
2022-10-18T17:54:42.597Z,13.8
2022-10-18T17:56:52.318Z,14.9
2022-10-18T17:58:52.784Z,7.7
2022-10-18T18:00:56.350Z,9.8
2022-10-18T18:02:59.916Z,10.4
2022-10-18T18:05:03.535Z,11.8
2022-10-18T18:07:06.937Z,6.2
2022-10-18T18:09:10.473Z,11.8
2022-10-18T18:11:17.108Z,10.9
2022-10-18T18:13:20.641Z,11.5
2022-10-18T18:15:24.178Z,15.3
2022-10-18T18:17:34.151Z,10.2
2022-10-18T18:19:31.298Z,8.9
2022-10-18T18:21:36.426Z,10
2022-10-18T18:23:39.916Z,12.6
2022-10-18T18:27:50.223Z,9.8
2022-10-18T18:29:53.642Z,5.8
2022-10-18T18:32:17.662Z,20.3
2022-10-18T18:34:21.236Z,12.5
2022-10-18T18:36:24.771Z,9.8
2022-10-18T18:38:31.404Z,11.3
2022-10-18T18:40:34.947Z,8.7
2022-10-18T18:42:38.488Z,9.1
2022-10-18T18:44:42.040Z,7.4
2022-10-18T18:46:45.625Z,7.5
2022-10-18T18:48:49.192Z,10.7
2022-10-18T18:50:52.746Z,7.5
2022-10-18T18:52:59.383Z,7.5
2022-10-18T18:55:02.961Z,6.9
2022-10-18T18:57:06.524Z,9.6
2022-10-18T18:59:10.076Z,14.4
2022-10-18T19:01:13.708Z,18.4
2022-10-18T19:05:20.831Z,14.2
2022-10-18T19:07:27.438Z,17.3
2022-10-18T19:09:30.970Z,7.8
2022-10-18T19:11:34.563Z,13
2022-10-18T19:15:41.716Z,7.4
2022-10-18T19:17:45.297Z,18.8
2022-10-18T19:19:48.851Z,18.4
2022-10-18T19:21:55.544Z,18.7
2022-10-18T19:23:59.140Z,17.8
2022-10-18T19:26:02.698Z,9.3
2022-10-18T19:27:06.016Z,16.9
2022-10-18T19:29:09.712Z,7.6
2022-10-18T19:31:13.437Z,17.4
2022-10-18T19:33:16.789Z,5.5
2022-10-18T19:35:23.434Z,11.9
2022-10-18T19:39:30.640Z,14.6
2022-10-18T19:45:41.411Z,20.3
2022-10-18T19:47:45.010Z,11.9
2022-10-18T19:49:51.691Z,14.5
2022-10-18T19:51:55.294Z,14.6
2022-10-18T19:53:58.866Z,15.3
2022-10-18T19:56:02.476Z,12.6
2022-10-18T20:00:10.865Z,11
2022-10-18T20:02:13.257Z,6.9
2022-10-18T20:04:19.934Z,14
2022-10-18T20:08:27.166Z,10.8
2022-10-18T20:12:34.556Z,14.8
2022-10-18T20:20:51.840Z,14.8
2022-10-18T20:22:55.435Z,11.7
2022-10-18T20:23:58.805Z,15.6
2022-10-18T20:26:02.373Z,6.5
2022-10-18T20:28:05.964Z,11.2
2022-10-18T20:30:11.347Z,17.3
2022-10-18T20:32:16.248Z,13.7
2022-10-18T20:34:19.839Z,13.3
2022-10-18T20:36:23.449Z,13.5
2022-10-18T20:38:27.050Z,15.6
2022-10-18T20:42:34.267Z,12.3
2022-10-18T20:44:37.881Z,15
2022-10-18T20:46:44.596Z,17.5
2022-10-18T20:48:48.165Z,18.1
2022-10-18T20:50:51.801Z,15.2
2022-10-18T20:52:55.405Z,13.6
2022-10-18T20:54:58.991Z,9.4
2022-10-18T20:57:02.603Z,15.4
2022-10-18T20:59:06.238Z,11.3
2022-10-18T21:01:12.969Z,15.6
2022-10-18T21:03:16.468Z,16.5
2022-10-18T21:05:20.118Z,6.6
2022-10-18T21:07:23.721Z,18.2
2022-10-18T21:09:27.338Z,15.9
2022-10-18T21:11:30.981Z,11.3
2022-10-18T21:13:34.598Z,19.4
2022-10-18T21:15:41.267Z,16.3
2022-10-18T21:17:44.871Z,8.7
2022-10-18T21:19:48.466Z,13.1
2022-10-18T21:20:51.810Z,14.7
2022-10-18T21:22:55.424Z,11.3
2022-10-18T21:24:59.071Z,21.4
2022-10-18T21:29:09.452Z,13.9
2022-10-18T21:33:16.603Z,21.8
2022-10-18T21:35:20.205Z,12.2
2022-10-18T21:37:23.809Z,16.5
2022-10-18T21:39:27.427Z,12.6
2022-10-18T21:41:31.072Z,15.9
2022-10-18T21:43:37.745Z,14.3
2022-10-18T21:45:41.340Z,16.7
2022-10-18T21:47:44.961Z,17.5
2022-10-18T21:49:48.573Z,10.8
2022-10-18T21:51:52.229Z,8.9
2022-10-18T21:53:55.830Z,14.1
2022-10-18T21:55:59.449Z,8.9
2022-10-18T22:04:17.034Z,8.4
2022-10-18T22:06:20.696Z,8.3
2022-10-18T22:08:24.236Z,15.7
2022-10-18T22:10:27.869Z,9.9
2022-10-18T22:12:34.686Z,13.8
2022-10-18T22:14:38.184Z,17.8
2022-10-18T22:16:41.799Z,23.3
2022-10-18T22:19:04.297Z,11.7
2022-10-18T22:21:07.910Z,6.5
2022-10-18T22:23:11.534Z,7.8
2022-10-18T22:25:18.238Z,6.5
2022-10-18T22:27:21.865Z,18.3
2022-10-18T22:29:25.502Z,8.4
2022-10-18T22:31:29.104Z,9.2
2022-10-18T22:33:32.813Z,11
2022-10-18T22:35:36.394Z,10
2022-10-18T22:37:40.024Z,12.6
2022-10-18T22:39:46.720Z,12.7
2022-10-18T22:41:50.326Z,14.5
2022-10-18T22:43:54.881Z,15.3
2022-10-18T22:45:57.574Z,11.4
2022-10-18T22:48:01.224Z,12.6
2022-10-18T22:50:04.945Z,11.1
2022-10-18T22:52:08.486Z,18.9
2022-10-18T22:54:15.216Z,12
2022-10-18T22:56:18.789Z,10.3
2022-10-18T23:00:26.144Z,10.2
2022-10-18T23:02:29.696Z,21.2
2022-10-18T23:06:37.915Z,13.4
2022-10-18T23:08:48.018Z,12.2
2022-10-18T23:10:47.259Z,17.9
2022-10-18T23:12:50.890Z,18.2
2022-10-18T23:13:54.236Z,11.8
2022-10-18T23:16:01.056Z,13
2022-10-18T23:18:01.508Z,7.8
2022-10-18T23:20:05.196Z,18.8
2022-10-18T23:22:11.847Z,14.9
2022-10-18T23:24:15.453Z,13.3
2022-10-18T23:26:19.099Z,11.5
2022-10-18T23:28:22.750Z,13.4
2022-10-18T23:30:26.395Z,28.8
2022-10-18T23:32:30.172Z,18.6
2022-10-18T23:34:33.640Z,11.8
2022-10-18T23:38:43.978Z,10.4
2022-10-18T23:40:47.572Z,9.5
2022-10-18T23:44:54.937Z,26
2022-10-18T23:46:58.500Z,13.5
2022-10-18T23:49:02.144Z,15.1
2022-10-18T23:53:12.464Z,24.7
2022-10-18T23:57:19.732Z,14.1
